Time;durP1;ratioP1;P1;durP2;ratioP2;P2;SDS_P1;SDS_P2;PMS_P1;PMS_P2;Temp;Humidity;BMP_temperature;BMP_pressure;BME280_temperature;BME280_humidity;BME280_pressure;Samples;Min_cycle;Max_cycle;Signal;HPM_P1;HPM_P2
2023/01/20 07:34:47;;;;;;;0.67;0.67;;;2.80;99.90;3.90;100931.00;;;;5056427;28;20232;-69
2023/01/20 07:37:13;;;;;;;0.30;0.30;;;2.50;99.90;5.10;100941.00;;;;5064552;28;20213;-69
2023/01/20 07:39:39;;;;;;;7.83;1.07;;;2.80;99.90;4.60;100951.00;;;;5077275;28;20197;-69
2023/01/20 07:42:05;;;;;;;3.80;3.50;;;3.00;99.90;5.10;100932.00;;;;5064281;28;20194;-69
2023/01/20 07:44:31;;;;;;;2.23;2.13;;;3.00;99.90;4.20;100948.00;;;;5055606;28;20204;-69
2023/01/20 07:46:57;;;;;;;1.23;0.90;;;3.00;99.90;4.50;100954.00;;;;5050727;28;20190;-69
2023/01/20 07:49:23;;;;;;;0.40;0.40;;;3.00;99.90;4.70;100951.00;;;;5067967;28;20203;-69
2023/01/20 07:51:52;;;;;;;0.73;0.73;;;3.00;99.90;5.00;100947.00;;;;5083447;28;20216;-69
2023/01/20 07:54:18;;;;;;;0.53;0.53;;;3.10;99.90;5.40;100957.00;;;;5070819;28;20208;-69
2023/01/20 07:56:44;;;;;;;3.30;2.40;;;3.20;99.90;3.80;100939.00;;;;5062991;28;20197;-69
2023/01/20 07:59:13;;;;;;;0.60;0.60;;;2.80;99.90;4.80;100938.00;;;;5057661;28;20270;-69
2023/01/20 08:01:42;;;;;;;0.70;0.70;;;3.00;99.90;5.20;100949.00;;;;5057628;28;20201;-69
2023/01/20 08:04:07;;;;;;;1.13;1.13;;;3.30;99.90;4.40;100969.00;;;;5056942;28;20263;-70
2023/01/20 08:06:33;;;;;;;1.53;1.43;;;3.20;99.90;4.10;100953.00;;;;5066832;28;20194;-69
2023/01/20 08:09:01;;;;;;;0.57;0.57;;;2.90;99.90;5.60;100971.00;;;;5056476;28;20208;-70
2023/01/20 08:11:27;;;;;;;0.40;0.40;;;3.30;99.90;6.20;100974.00;;;;5068227;28;20227;-69
2023/01/20 08:13:53;;;;;;;0.50;0.50;;;3.70;99.90;6.10;100980.00;;;;5057475;28;20200;-69
2023/01/20 08:16:19;;;;;;;0.40;0.40;;;3.90;99.90;5.90;100979.00;;;;5056742;28;20699;-69
2023/01/20 08:18:46;;;;;;;2.03;1.93;;;3.70;99.90;6.30;100986.00;;;;5057038;28;20220;-69
2023/01/20 08:21:27;;;;;;;0.90;0.90;;;4.00;99.90;4.80;100980.00;;;;5055646;28;20576;-69
2023/01/20 08:23:58;;;;;;;0.40;0.40;;;3.50;99.90;5.00;100975.00;;;;5053092;28;20652;-69
2023/01/20 08:26:26;;;;;;;0.50;0.50;;;3.30;99.90;5.00;100974.00;;;;5063860;28;20662;-69
2023/01/20 08:28:53;;;;;;;1.57;1.47;;;3.40;99.90;6.40;100954.00;;;;5054941;28;20209;-69
2023/01/20 08:31:22;;;;;;;8.20;4.53;;;3.70;99.90;6.10;100987.00;;;;5057570;28;20289;-69
2023/01/20 08:33:52;;;;;;;6.80;2.10;;;3.90;99.90;5.70;100998.00;;;;5054682;28;20361;-69
2023/01/20 08:36:34;;;;;;;0.30;0.30;;;3.90;99.90;5.60;100991.00;;;;5056896;28;20292;-69
2023/01/20 08:39:03;;;;;;;1.13;1.13;;;3.70;99.90;6.30;100983.00;;;;5054529;28;20285;-70
2023/01/20 08:41:35;;;;;;;0.93;0.93;;;3.80;99.90;4.70;100985.00;;;;5043313;28;20212;-69
2023/01/20 08:44:05;;;;;;;1.17;1.07;;;3.60;99.90;4.20;100977.00;;;;5056565;28;20569;-70
2023/01/20 08:46:36;;;;;;;2.53;2.33;;;3.30;99.90;4.30;100965.00;;;;5056378;28;20201;-69
2023/01/20 08:49:06;;;;;;;4.50;2.60;;;3.20;99.90;4.10;100975.00;;;;5048247;28;20288;-70
2023/01/20 08:51:36;;;;;;;3.23;2.93;;;3.20;99.90;3.70;100971.00;;;;5057527;28;20205;-70
2023/01/20 08:54:03;;;;;;;3.40;1.70;;;3.10;99.90;3.80;100964.00;;;;5054436;28;20197;-70
2023/01/20 08:56:29;;;;;;;2.20;1.40;;;3.10;99.90;4.00;100974.00;;;;5045976;28;20217;-70
2023/01/20 08:58:56;;;;;;;3.17;2.57;;;3.20;99.90;3.70;100969.00;;;;5055824;28;20208;-70
2023/01/20 09:01:26;;;;;;;2.80;2.60;;;3.20;99.90;4.10;100984.00;;;;5056315;28;20212;-70
2023/01/20 09:03:53;;;;;;;16.27;3.57;;;3.30;99.90;3.90;100982.00;;;;5046796;28;20274;-70
2023/01/20 09:06:20;;;;;;;2.60;2.50;;;3.30;99.90;3.90;100991.00;;;;5044663;28;20206;-70
2023/01/20 09:08:51;;;;;;;1.67;1.57;;;3.30;99.90;4.30;100992.00;;;;5051008;28;20332;-70
2023/01/20 09:11:39;;;;;;;4.40;4.00;;;3.40;99.90;4.10;100997.00;;;;5056770;28;20205;-70
2023/01/20 09:14:05;;;;;;;1.27;1.13;;;3.40;99.90;4.50;100953.00;;;;5052366;28;20213;-69
2023/01/20 09:16:31;;;;;;;1.53;1.47;;;3.50;99.90;4.10;100989.00;;;;5072787;28;20599;-70
2023/01/20 09:18:57;;;;;;;4.43;3.27;;;3.50;99.90;4.20;100993.00;;;;5054550;28;20660;-70
2023/01/20 09:21:25;;;;;;;3.43;3.13;;;3.50;99.90;4.30;100961.00;;;;5066695;28;20201;-70
2023/01/20 09:23:56;;;;;;;4.23;2.57;;;3.50;99.90;4.80;100989.00;;;;5046524;28;20212;-70
2023/01/20 09:26:22;;;;;;;5.40;4.30;;;3.70;99.90;4.20;100988.00;;;;5066279;28;20276;-70
2023/01/20 09:29:11;;;;;;;0.97;0.70;;;3.60;99.90;5.10;100987.00;;;;5052445;28;20290;-71
2023/01/20 09:31:57;;;;;;;4.83;4.53;;;3.90;99.90;4.20;101006.00;;;;5055529;28;20670;-70
2023/01/20 09:34:58;;;;;;;2.37;2.27;;;3.70;99.90;5.10;100999.00;;;;5055264;28;20202;-71
2023/01/20 09:44:22;;;;;;;9.33;4.20;;;3.80;99.90;4.40;101005.00;;;;5067550;28;20346;-71
2023/01/20 09:54:13;;;;;;;4.07;3.00;;;4.30;99.90;4.70;101011.00;;;;5057694;28;20638;-69
2023/01/20 09:57:00;;;;;;;12.80;2.83;;;4.10;99.90;5.00;101004.00;;;;5036038;28;20539;-70
2023/01/20 10:00:02;;;;;;;8.47;4.57;;;4.20;99.90;5.20;101010.00;;;;5052254;28;20215;-69
2023/01/20 10:02:55;;;;;;;6.63;3.40;;;4.30;99.90;4.60;101013.00;;;;5066628;28;20208;-69
2023/01/20 10:05:56;;;;;;;2.90;2.60;;;4.10;99.90;4.90;101018.00;;;;5047271;28;20214;-69
2023/01/20 10:08:58;;;;;;;0.80;0.80;;;4.20;99.90;5.70;101020.00;;;;5070118;28;20236;-69
2023/01/20 10:11:45;;;;;;;4.80;4.33;;;4.20;99.90;5.70;101026.00;;;;5015322;28;20211;-69
2023/01/20 10:14:50;;;;;;;15.47;6.93;;;4.50;99.90;5.40;101025.00;;;;5031114;28;20298;-69
2023/01/20 10:17:28;;;;;;;6.50;6.13;;;4.30;99.90;5.20;100992.00;;;;5052243;28;20211;-69
2023/01/20 10:20:17;;;;;;;9.00;4.37;;;4.40;99.90;5.50;101025.00;;;;5068687;28;20213;-69
2023/01/20 10:33:58;;;;;;;1.43;1.33;;;4.10;99.90;5.20;101021.00;;;;5110754;27;20519;-68
2023/01/20 10:37:07;;;;;;;0.93;0.93;;;4.50;99.90;6.00;101030.00;;;;5083186;28;20202;-68
2023/01/20 10:39:51;;;;;;;4.00;3.27;;;4.80;99.90;5.50;101025.00;;;;5089022;28;20554;-69
2023/01/20 10:42:35;;;;;;;2.17;1.60;;;4.80;99.90;5.80;101026.00;;;;5102486;28;20269;-68
2023/01/20 10:45:01;;;;;;;3.93;3.40;;;4.80;99.90;6.00;101031.00;;;;5087519;28;20271;-68
2023/01/20 10:48:02;;;;;;;3.83;2.87;;;4.90;99.90;5.50;101026.00;;;;5089143;28;20319;-69
2023/01/20 10:50:47;;;;;;;0.90;0.90;;;4.90;99.90;6.00;101027.00;;;;5089774;28;20287;-70
2023/01/20 10:53:24;;;;;;;4.83;2.57;;;5.00;99.90;6.00;101017.00;;;;5088634;28;20259;-69
2023/01/20 10:56:16;;;;;;;9.43;3.93;;;5.10;99.90;6.10;101018.00;;;;5088218;28;20187;-68
2023/01/20 10:58:44;;;;;;;2.77;2.57;;;5.20;99.90;6.60;101023.00;;;;5089368;28;20214;-68
2023/01/20 11:01:20;;;;;;;6.63;6.33;;;5.40;99.90;6.00;101014.00;;;;5088462;28;20183;-68
2023/01/20 11:03:57;;;;;;;5.43;2.73;;;5.20;99.90;6.00;101013.00;;;;5088633;28;20272;-68
2023/01/20 11:06:26;;;;;;;18.53;5.37;;;5.30;99.90;6.50;101013.00;;;;5089743;28;20181;-68
2023/01/20 11:09:14;;;;;;;2.50;1.17;;;5.40;99.90;6.30;101018.00;;;;5087764;28;20825;-68
2023/01/20 11:11:40;;;;;;;2.93;1.93;;;5.30;99.90;6.40;100964.00;;;;5083572;28;20471;-68
2023/01/20 11:14:07;;;;;;;2.07;1.90;;;5.40;99.90;6.10;101011.00;;;;5083922;28;20181;-68
2023/01/20 11:16:33;;;;;;;2.77;2.30;;;5.30;99.90;6.20;101002.00;;;;5084638;28;20664;-68
2023/01/20 11:19:08;;;;;;;5.07;2.30;;;5.40;99.90;6.60;101004.00;;;;5082061;28;20195;-68
2023/01/20 11:21:36;;;;;;;0.20;0.20;;;5.40;99.90;7.90;101029.00;;;;5091785;28;20553;-69
2023/01/20 11:24:42;;;;;;;0.50;0.50;;;5.80;99.90;8.80;101037.00;;;;5102228;28;20755;-69
2023/01/20 11:27:42;;;;;;;1.53;1.43;;;6.40;99.90;8.70;101056.00;;;;5084271;28;20211;-69
2023/01/20 11:30:38;;;;;;;1.37;1.37;;;6.50;99.90;7.90;101041.00;;;;5099814;28;20669;-68
2023/01/20 11:33:39;;;;;;;0.57;0.57;;;6.20;99.90;7.40;101060.00;;;;5095108;28;20224;-69
2023/01/20 11:36:17;;;;;;;0.30;0.30;;;5.60;99.90;8.10;101048.00;;;;5064814;28;20213;-69
2023/01/20 11:39:21;;;;;;;0.40;0.40;;;5.50;99.90;8.20;101101.00;;;;5079306;28;20189;-68
2023/01/20 11:42:30;;;;;;;1.33;0.47;;;5.80;99.90;5.80;101067.00;;;;5086255;28;20250;-68
2023/01/20 11:45:25;;;;;;;0.20;0.20;;;5.00;99.90;6.40;101059.00;;;;5059409;28;20616;-68
2023/01/20 11:48:15;;;;;;;0.50;0.43;;;4.80;99.90;7.20;101067.00;;;;5074151;28;20254;-68
2023/01/20 11:51:33;;;;;;;0.20;0.20;;;5.00;99.90;8.00;101077.00;;;;5075609;28;20187;-69
2023/01/20 11:54:14;;;;;;;0.50;0.43;;;5.30;99.90;6.50;101069.00;;;;5069749;28;20220;-69
2023/01/20 11:57:20;;;;;;;0.30;0.30;;;5.40;99.90;6.70;101076.00;;;;5070566;28;20178;-68
2023/01/20 12:00:27;;;;;;;0.40;0.40;;;5.20;99.90;6.80;101077.00;;;;5061636;28;20201;-68
2023/01/20 12:03:51;;;;;;;0.30;0.30;;;5.20;99.90;8.00;101073.00;;;;5070746;28;20598;-69
2023/01/20 12:06:50;;;;;;;0.63;0.63;;;5.30;99.90;7.00;101089.00;;;;5082068;28;20192;-69
2023/01/20 12:09:44;;;;;;;0.67;0.63;;;5.70;99.90;6.40;101077.00;;;;5058927;28;20220;-68
2023/01/20 12:14:18;;;;;;;0.40;0.40;;;5.10;99.90;7.40;101063.00;;;;5064402;28;20220;-68
2023/01/20 12:16:04;;;;;;;0.30;0.30;;;5.20;99.90;7.40;101050.00;;;;5059144;28;20190;-68
2023/01/20 12:18:46;;;;;;;0.40;0.40;;;5.40;99.90;7.50;101066.00;;;;5074156;28;20235;-69
2023/01/20 12:21:34;;;;;;;0.37;0.37;;;5.50;99.90;7.30;101065.00;;;;5079131;28;20197;-68
2023/01/20 12:24:17;;;;;;;0.40;0.40;;;5.40;99.90;7.50;101060.00;;;;5071411;28;20186;-68
2023/01/20 12:26:43;;;;;;;0.30;0.30;;;5.30;99.90;8.20;101078.00;;;;5073312;28;20192;-69
2023/01/20 12:29:43;;;;;;;0.40;0.40;;;5.70;99.90;8.20;101072.00;;;;5073546;28;20265;-68
2023/01/20 12:32:12;;;;;;;0.37;0.37;;;5.70;99.90;8.70;101081.00;;;;5073073;28;20551;-69
2023/01/20 12:34:38;;;;;;;0.50;0.50;;;6.10;99.90;8.70;101096.00;;;;5057935;28;20190;-69
2023/01/20 12:37:19;;;;;;;0.40;0.40;;;6.10;99.90;8.60;101047.00;;;;5057861;28;20194;-68
2023/01/20 12:40:51;;;;;;;0.40;0.40;;;6.00;99.90;9.50;101103.00;;;;5069429;28;20228;-68
2023/01/20 12:43:36;;;;;;;0.50;0.50;;;6.30;99.90;9.40;101063.00;;;;5019348;28;20198;-68
2023/01/20 12:46:17;;;;;;;0.40;0.40;;;6.70;99.90;10.00;101069.00;;;;5041147;28;20678;-68
2023/01/20 12:49:26;;;;;;;1.27;1.27;;;6.90;99.90;8.90;101103.00;;;;5074269;28;20184;-68
2023/01/20 12:52:37;;;;;;;0.30;0.30;;;7.00;99.90;9.30;101054.00;;;;5037844;28;20229;-68
2023/01/20 12:55:37;;;;;;;0.90;0.90;;;6.80;99.90;9.20;101057.00;;;;5035574;28;20201;-68
2023/01/20 12:58:46;;;;;;;0.30;0.30;;;6.90;99.90;10.20;101096.00;;;;5070223;28;20275;-68
2023/01/20 13:01:29;;;;;;;0.67;0.67;;;7.30;99.90;10.70;101096.00;;;;5069963;28;20197;-68
2023/01/20 13:03:55;;;;;;;0.30;0.30;;;7.80;99.90;10.90;101112.00;;;;5061134;28;20628;-68
2023/01/20 13:07:12;;;;;;;0.30;0.30;;;8.10;99.90;10.30;101117.00;;;;5082896;28;20197;-68
2023/01/20 13:10:04;;;;;;;0.40;0.40;;;8.00;99.90;10.00;101121.00;;;;5072169;28;20568;-68
2023/01/20 13:12:55;;;;;;;0.30;0.30;;;7.80;99.90;10.00;101116.00;;;;5073809;28;20232;-68
2023/01/20 13:15:43;;;;;;;1.33;1.33;;;7.80;99.90;10.10;101109.00;;;;5066105;28;20178;-68
2023/01/20 13:19:02;;;;;;;0.20;0.20;;;7.80;99.90;10.40;101110.00;;;;5060960;28;20195;-68
2023/01/20 13:21:30;;;;;;;0.50;0.50;;;8.00;99.90;9.30;101118.00;;;;5089796;28;20193;-68
2023/01/20 13:24:00;;;;;;;3.03;1.10;;;7.80;99.90;9.00;101076.00;;;;5054222;28;20280;-68
2023/01/20 13:26:45;;;;;;;1.87;0.93;;;7.50;99.90;9.10;101081.00;;;;5072240;28;20201;-68
2023/01/20 13:29:56;;;;;;;0.80;0.80;;;7.40;99.90;8.60;101104.00;;;;5084374;28;20189;-68
2023/01/20 13:32:48;;;;;;;0.90;0.70;;;7.10;99.90;8.20;101103.00;;;;5067271;28;20256;-68
2023/01/20 13:35:17;;;;;;;0.20;0.20;;;7.00;99.90;9.70;101096.00;;;;5083888;28;20698;-68
2023/01/20 13:38:34;;;;;;;0.60;0.60;;;7.20;99.90;9.30;101107.00;;;;5073510;28;20225;-68
2023/01/20 13:41:54;;;;;;;0.30;0.30;;;7.20;99.90;10.10;101106.00;;;;5044768;28;20263;-68
2023/01/20 13:45:14;;;;;;;2.90;1.67;;;7.40;99.90;9.80;101100.00;;;;5041836;28;20675;-68
2023/01/20 13:48:01;;;;;;;0.50;0.50;;;7.50;99.90;8.50;101076.00;;;;5064615;28;20240;-68
2023/01/20 13:50:49;;;;;;;0.30;0.30;;;6.90;99.90;9.60;101078.00;;;;5061734;28;20202;-68
2023/01/20 13:53:32;;;;;;;3.37;1.27;;;7.10;99.90;8.40;101069.00;;;;5069990;28;20233;-68
2023/01/20 13:56:00;;;;;;;0.30;0.30;;;6.80;99.90;8.90;101059.00;;;;5055253;28;20271;-68
2023/01/20 13:58:33;;;;;;;2.93;1.60;;;6.80;99.90;7.70;101059.00;;;;5072404;28;20184;-68
2023/01/20 14:01:14;;;;;;;1.90;0.77;;;6.60;99.90;8.10;101046.00;;;;5069898;28;20189;-68
2023/01/20 14:03:40;;;;;;;1.80;0.90;;;6.60;99.90;7.70;101007.00;;;;5063829;28;20574;-68
2023/01/20 14:06:19;;;;;;;2.00;1.33;;;6.60;99.90;8.90;101051.00;;;;5071615;28;20191;-68
2023/01/20 14:09:18;;;;;;;2.23;0.73;;;6.90;99.90;8.30;101015.00;;;;5071882;28;20191;-68
2023/01/20 14:12:15;;;;;;;1.10;1.00;;;6.90;99.90;8.40;101049.00;;;;5073015;28;20207;-68
2023/01/20 14:14:48;;;;;;;0.20;0.20;;;6.80;99.90;9.40;101050.00;;;;5044455;28;20203;-68
2023/01/20 14:17:22;;;;;;;0.30;0.30;;;7.10;99.90;10.00;101059.00;;;;5067167;28;20250;-68
2023/01/20 14:20:16;;;;;;;1.40;0.80;;;7.50;99.90;9.30;101060.00;;;;5069855;28;20196;-68
2023/01/20 14:22:49;;;;;;;0.83;0.83;;;7.40;99.90;9.30;101054.00;;;;5068313;28;20601;-68
2023/01/20 14:25:25;;;;;;;1.73;0.50;;;7.30;99.90;9.40;101065.00;;;;5064750;28;20559;-68
2023/01/20 14:27:55;;;;;;;0.30;0.30;;;7.30;99.90;9.90;101063.00;;;;5071697;28;20652;-68
2023/01/20 14:30:28;;;;;;;0.30;0.30;;;7.60;99.90;9.80;101072.00;;;;5065488;28;20280;-68
2023/01/20 14:33:38;;;;;;;0.50;0.50;;;7.50;99.90;10.30;101092.00;;;;5056421;28;20217;-68
2023/01/20 14:36:07;;;;;;;0.30;0.30;;;7.70;99.90;9.30;101046.00;;;;5065616;28;20543;-68
2023/01/20 14:38:48;;;;;;;0.40;0.40;;;7.40;99.90;8.70;101039.00;;;;5072047;28;20232;-68
2023/01/20 14:41:28;;;;;;;2.60;1.70;;;7.00;99.90;9.60;101055.00;;;;5069904;28;20464;-68
2023/01/20 14:44:32;;;;;;;0.30;0.30;;;7.20;99.90;10.10;101106.00;;;;5072213;28;20319;-69
2023/01/20 14:47:01;;;;;;;4.43;0.50;;;7.40;99.90;10.10;101109.00;;;;5080156;28;20182;-68
2023/01/20 14:50:05;;;;;;;0.83;0.60;;;7.50;99.90;10.20;101122.00;;;;5071374;28;20260;-68
2023/01/20 14:52:31;;;;;;;0.33;0.33;;;7.60;99.90;9.80;101121.00;;;;5069897;28;20385;-68
2023/01/20 14:55:05;;;;;;;0.50;0.50;;;7.40;99.90;9.20;101114.00;;;;5070578;28;20209;-68
2023/01/20 14:57:59;;;;;;;0.30;0.30;;;7.20;99.90;9.90;101123.00;;;;5063219;28;20664;-68
2023/01/20 15:00:43;;;;;;;0.30;0.30;;;7.20;99.90;9.90;101123.00;;;;5085451;28;20177;-68
2023/01/20 15:03:39;;;;;;;0.30;0.30;;;7.30;99.90;9.90;101138.00;;;;5067616;28;20184;-68
2023/01/20 15:06:25;;;;;;;0.33;0.33;;;7.30;99.90;9.70;101144.00;;;;5087736;28;20184;-68
2023/01/20 15:09:32;;;;;;;0.40;0.40;;;7.20;99.90;10.00;101154.00;;;;5082666;28;20190;-68
2023/01/20 15:12:41;;;;;;;0.30;0.30;;;7.30;99.90;10.00;101155.00;;;;5052751;28;20200;-68
2023/01/20 15:15:24;;;;;;;0.30;0.30;;;7.40;99.90;10.50;101139.00;;;;5072462;28;20199;-68
2023/01/20 15:18:08;;;;;;;0.40;0.40;;;7.60;99.90;10.30;101170.00;;;;5058632;28;20182;-68
2023/01/20 15:20:41;;;;;;;0.30;0.30;;;7.60;99.90;10.40;101177.00;;;;5081824;28;20303;-68
2023/01/20 15:23:34;;;;;;;0.50;0.50;;;7.70;99.90;10.20;101172.00;;;;5071748;28;20663;-68
2023/01/20 15:26:30;;;;;;;0.40;0.40;;;7.60;99.90;9.90;101165.00;;;;5074519;28;20187;-68
2023/01/20 15:28:57;;;;;;;0.40;0.40;;;7.50;99.90;10.00;101172.00;;;;5090441;28;20215;-68
2023/01/20 15:31:51;;;;;;;0.67;0.67;;;7.50;99.90;10.00;101147.00;;;;5074509;28;20272;-68
2023/01/20 15:34:20;;;;;;;0.30;0.30;;;7.50;99.90;10.10;101169.00;;;;5075307;28;20225;-68
2023/01/20 15:36:48;;;;;;;0.60;0.60;;;7.50;99.90;10.10;101175.00;;;;5074790;28;20543;-68
2023/01/20 15:39:18;;;;;;;0.40;0.40;;;7.30;99.90;10.10;101157.00;;;;5074289;28;20706;-68
2023/01/20 15:41:55;;;;;;;0.40;0.40;;;7.40;99.90;9.40;101163.00;;;;5074062;28;20220;-68
2023/01/20 15:44:53;;;;;;;0.50;0.50;;;7.20;99.90;9.70;101181.00;;;;5074241;28;20247;-68
2023/01/20 15:47:45;;;;;;;0.40;0.40;;;7.10;99.90;9.70;101197.00;;;;5076745;28;20185;-67
2023/01/20 15:50:31;;;;;;;0.40;0.40;;;7.30;99.90;9.80;101199.00;;;;5074355;28;20205;-68
2023/01/20 15:52:57;;;;;;;0.40;0.40;;;7.40;99.90;9.70;101167.00;;;;5074212;28;20223;-68
2023/01/20 15:55:56;;;;;;;0.30;0.30;;;7.20;99.90;9.80;101166.00;;;;5074115;28;20189;-68
2023/01/20 15:58:32;;;;;;;0.40;0.40;;;7.10;99.90;9.40;101183.00;;;;5067398;28;20177;-68
2023/01/20 16:01:01;;;;;;;0.40;0.40;;;7.10;99.90;9.90;101215.00;;;;5073962;28;20192;-68
2023/01/20 16:03:50;;;;;;;0.40;0.40;;;7.10;99.90;9.80;101219.00;;;;5074423;28;20216;-68
2023/01/20 16:06:28;;;;;;;0.60;0.60;;;7.20;99.90;9.80;101222.00;;;;5073489;28;20181;-68
2023/01/20 16:08:54;;;;;;;0.60;0.60;;;7.10;99.90;9.10;101227.00;;;;5073855;28;20200;-68
2023/01/20 16:11:25;;;;;;;0.40;0.40;;;6.90;99.90;9.30;101216.00;;;;5074993;28;20271;-68
2023/01/20 16:13:51;;;;;;;0.40;0.40;;;6.70;99.90;9.50;101230.00;;;;5056197;28;20190;-67
2023/01/20 16:16:22;;;;;;;0.40;0.40;;;6.80;99.90;8.90;101228.00;;;;5074120;28;20187;-69
2023/01/20 16:18:51;;;;;;;0.70;0.70;;;6.60;99.90;9.40;101225.00;;;;5073217;28;20205;-70
2023/01/20 16:21:19;;;;;;;0.63;0.63;;;6.70;99.90;9.50;101198.00;;;;5074915;28;20667;-68
2023/01/20 16:23:53;;;;;;;0.50;0.50;;;6.80;99.90;8.90;101200.00;;;;5076234;28;20226;-68
2023/01/20 16:26:26;;;;;;;0.43;0.43;;;6.60;99.90;8.90;101226.00;;;;5073670;28;20237;-68
2023/01/20 16:29:03;;;;;;;0.40;0.40;;;6.50;99.90;9.40;101230.00;;;;5069190;28;20181;-68
2023/01/20 16:31:32;;;;;;;0.40;0.40;;;6.70;99.90;9.50;101243.00;;;;5073064;28;20193;-68
2023/01/20 16:34:00;;;;;;;0.50;0.50;;;6.80;99.90;9.60;101232.00;;;;5072761;28;20430;-69
2023/01/20 16:36:47;;;;;;;0.40;0.40;;;6.70;99.90;9.40;101255.00;;;;5073408;28;20198;-68
2023/01/20 16:39:33;;;;;;;0.40;0.40;;;6.70;99.90;9.50;101251.00;;;;5082819;28;20181;-69
2023/01/20 16:42:48;;;;;;;0.70;0.70;;;6.70;99.90;8.60;101254.00;;;;5073085;28;20195;-68
2023/01/20 16:45:28;;;;;;;0.40;0.40;;;6.50;99.90;9.10;101237.00;;;;5063010;28;20222;-69
2023/01/20 16:48:17;;;;;;;0.30;0.30;;;6.40;99.90;8.00;101237.00;;;;5072886;28;20237;-68
2023/01/20 16:51:08;;;;;;;0.40;0.40;;;6.00;99.90;8.20;101241.00;;;;5064090;28;20213;-68
2023/01/20 16:53:55;;;;;;;0.30;0.30;;;6.00;99.90;8.80;101250.00;;;;5064896;28;20217;-69
2023/01/20 16:56:31;;;;;;;0.83;0.83;;;6.00;99.90;8.50;101260.00;;;;5062226;28;20233;-69
2023/01/20 16:59:09;;;;;;;0.30;0.30;;;6.00;99.90;8.10;101258.00;;;;5073175;28;20237;-68
2023/01/20 17:01:51;;;;;;;0.40;0.40;;;5.80;99.90;8.40;101257.00;;;;5057135;28;20193;-68
2023/01/20 17:04:19;;;;;;;0.40;0.40;;;5.80;99.90;8.20;101269.00;;;;5064493;28;20197;-69
2023/01/20 17:07:02;;;;;;;0.43;0.43;;;5.80;99.90;8.20;101240.00;;;;5056623;28;20209;-68
2023/01/20 17:09:38;;;;;;;0.40;0.40;;;6.00;99.90;8.20;101271.00;;;;5056221;28;20243;-69
2023/01/20 17:12:29;;;;;;;1.97;1.80;;;5.80;99.90;8.40;101285.00;;;;5073713;28;20295;-68
2023/01/20 17:15:32;;;;;;;0.40;0.40;;;6.00;99.90;8.80;101285.00;;;;5066752;28;20198;-68
2023/01/20 17:18:44;;;;;;;0.40;0.40;;;6.00;99.90;8.60;101294.00;;;;5069811;28;20185;-68
2023/01/20 17:21:38;;;;;;;0.53;0.53;;;6.00;99.90;8.80;101300.00;;;;5085126;28;20192;-69
2023/01/20 17:24:31;;;;;;;0.60;0.60;;;6.00;99.90;8.80;101309.00;;;;5072445;28;20187;-69
2023/01/20 17:27:20;;;;;;;0.50;0.50;;;6.00;99.90;8.90;101319.00;;;;5066339;28;20280;-68
2023/01/20 17:30:17;;;;;;;0.60;0.60;;;6.00;99.90;7.20;101313.00;;;;5062657;28;20213;-69
2023/01/20 17:32:47;;;;;;;0.43;0.43;;;5.80;99.90;6.50;101304.00;;;;5071906;28;20588;-68
2023/01/20 17:35:17;;;;;;;0.40;0.40;;;5.30;99.90;7.50;101296.00;;;;5070752;28;20220;-68
2023/01/20 17:38:03;;;;;;;0.47;0.47;;;5.30;99.90;7.00;101273.00;;;;5071700;28;20200;-68
2023/01/20 17:40:55;;;;;;;1.33;1.23;;;5.40;99.90;5.20;101301.00;;;;5075516;28;20259;-68
2023/01/20 17:43:46;;;;;;;1.27;1.17;;;4.90;99.90;6.00;101311.00;;;;5017401;28;20203;-68
2023/01/20 17:46:26;;;;;;;1.53;1.40;;;4.60;99.90;6.10;101323.00;;;;5069153;28;20199;-68
2023/01/20 17:49:19;;;;;;;0.87;0.87;;;4.60;99.90;5.80;101329.00;;;;5073185;28;20258;-68
2023/01/20 17:52:27;;;;;;;0.97;0.87;;;4.50;99.90;5.50;101327.00;;;;5072452;28;20207;-68
2023/01/20 17:55:01;;;;;;;0.50;0.50;;;4.40;99.90;5.90;101340.00;;;;5070668;28;20184;-68
2023/01/20 17:57:27;;;;;;;1.53;1.43;;;4.40;99.90;6.50;101358.00;;;;5071788;28;20203;-68
2023/01/20 17:59:52;;;;;;;0.87;0.87;;;4.50;99.90;6.50;101356.00;;;;5070568;28;20192;-68
2023/01/20 18:02:26;;;;;;;1.00;0.87;;;4.60;99.90;7.00;101366.00;;;;5072030;28;20192;-68
2023/01/20 18:04:52;;;;;;;0.60;0.60;;;4.80;99.90;6.80;101381.00;;;;5072765;28;20653;-68
2023/01/20 18:07:18;;;;;;;1.40;1.40;;;4.80;99.90;6.80;101384.00;;;;5071883;28;20189;-68
2023/01/20 18:10:02;;;;;;;1.97;1.87;;;4.80;99.90;5.40;101383.00;;;;5087207;28;20567;-68
2023/01/20 18:12:28;;;;;;;2.17;2.07;;;4.40;99.90;4.50;101367.00;;;;5076230;28;20221;-68
2023/01/20 18:15:01;;;;;;;4.20;2.40;;;3.90;99.90;4.70;101388.00;;;;5073252;28;20653;-68
2023/01/20 18:17:26;;;;;;;5.00;4.07;;;3.80;99.90;4.40;101389.00;;;;5071369;28;20559;-67
2023/01/20 18:19:55;;;;;;;4.67;3.53;;;3.70;99.90;4.30;101371.00;;;;5072827;28;20185;-68
2023/01/20 18:22:21;;;;;;;3.00;2.80;;;3.50;99.90;4.10;101416.00;;;;5078058;28;20248;-68
2023/01/20 18:24:46;;;;;;;8.20;6.63;;;3.40;99.90;3.40;101420.00;;;;5071136;28;20289;-68
2023/01/20 18:27:17;;;;;;;3.13;2.93;;;3.20;99.90;4.20;101430.00;;;;5072940;28;20173;-68
2023/01/20 18:30:05;;;;;;;2.50;2.07;;;3.30;99.90;4.60;101434.00;;;;5071752;28;20213;-68
2023/01/20 18:32:31;;;;;;;6.77;6.30;;;3.40;99.90;3.70;101443.00;;;;5071203;28;20542;-69
2023/01/20 18:35:22;;;;;;;3.07;2.80;;;3.20;99.90;3.60;101424.00;;;;5071698;28;20181;-69
2023/01/20 18:38:03;;;;;;;7.37;5.30;;;3.00;99.90;3.00;101443.00;;;;5071810;28;20192;-69
2023/01/20 18:40:35;;;;;;;4.73;4.33;;;2.80;99.90;3.90;101461.00;;;;5064745;28;20180;-69
2023/01/20 18:43:07;;;;;;;6.00;4.00;;;3.00;99.90;3.80;101462.00;;;;5051839;28;20214;-69
2023/01/20 18:45:54;;;;;;;4.40;4.17;;;3.00;99.90;3.80;101468.00;;;;5070917;28;20189;-69
2023/01/20 18:48:21;;;;;;;3.33;3.07;;;2.80;99.90;4.20;101473.00;;;;5070001;28;20348;-69
2023/01/20 18:51:25;;;;;;;6.13;5.07;;;3.00;99.90;3.70;101477.00;;;;5070789;28;20181;-69
2023/01/20 18:54:20;;;;;;;6.80;5.27;;;3.00;99.90;3.90;101452.00;;;;5072828;28;20181;-69
2023/01/20 18:57:20;;;;;;;2.57;2.37;;;2.90;99.90;4.40;101494.00;;;;5058725;28;20188;-69
2023/01/20 19:00:22;;;;;;;2.60;2.47;;;2.90;99.90;4.90;101512.00;;;;5070918;28;20189;-70
2023/01/20 19:02:54;;;;;;;4.37;3.20;;;3.20;99.90;3.50;101508.00;;;;5070905;28;20196;-70
2023/01/20 19:05:32;;;;;;;9.87;6.60;;;3.00;99.90;3.40;101516.00;;;;5075018;28;20243;-70
2023/01/20 19:08:21;;;;;;;9.93;8.13;;;2.80;99.90;3.80;101533.00;;;;5090767;28;20250;-70
2023/01/20 19:11:41;;;;;;;7.60;6.37;;;2.90;99.90;3.10;101549.00;;;;5070028;28;20182;-70
2023/01/20 19:15:05;;;;;;;9.53;6.10;;;2.70;99.90;3.30;101541.00;;;;5062499;28;20706;-70
2023/01/20 19:17:38;;;;;;;4.83;3.93;;;2.70;99.90;4.10;101551.00;;;;5061487;28;20193;-70
2023/01/20 19:20:27;;;;;;;10.83;8.93;;;2.80;99.90;3.30;101549.00;;;;5074955;28;20216;-70
2023/01/20 19:23:46;;;;;;;6.17;5.57;;;2.70;99.90;3.20;101543.00;;;;5074557;28;20268;-70
2023/01/20 19:26:22;;;;;;;6.07;5.47;;;2.70;99.90;3.90;101575.00;;;;5074919;28;20177;-70
2023/01/20 19:29:07;;;;;;;9.50;7.70;;;2.80;99.90;3.50;101577.00;;;;5074893;28;20204;-70
2023/01/20 19:31:58;;;;;;;8.93;8.07;;;2.70;99.90;2.90;101571.00;;;;5063455;28;20205;-70
2023/01/20 19:34:29;;;;;;;3.30;3.07;;;2.60;99.90;3.70;101590.00;;;;5065389;28;20212;-70
2023/01/20 19:37:01;;;;;;;6.87;6.00;;;2.70;99.90;3.50;101600.00;;;;5057828;28;20185;-70
2023/01/20 19:39:49;;;;;;;8.50;6.13;;;2.70;99.90;3.70;101595.00;;;;5067062;28;20185;-70
2023/01/20 19:42:24;;;;;;;1.83;1.77;;;2.60;99.90;4.30;101598.00;;;;5084221;28;20210;-70
2023/01/20 19:44:53;;;;;;;3.67;3.00;;;2.80;99.90;4.20;101609.00;;;;5061803;28;20199;-70
2023/01/20 19:47:19;;;;;;;34.93;11.47;;;2.90;99.90;3.50;101583.00;;;;5090028;28;20312;-70
2023/01/20 19:49:44;;;;;;;6.53;5.73;;;2.80;99.90;3.50;101635.00;;;;5074108;28;20285;-70
2023/01/20 19:52:10;;;;;;;2.37;2.20;;;2.80;99.90;3.70;101633.00;;;;5070875;28;20206;-70
2023/01/20 19:54:56;;;;;;;2.60;1.80;;;2.80;99.90;5.00;101651.00;;;;5070327;28;20195;-70
2023/01/20 19:57:39;;;;;;;0.80;0.80;;;3.10;99.90;3.90;101646.00;;;;5067990;28;20193;-70
2023/01/20 20:00:29;;;;;;;12.73;8.03;;;2.90;99.90;3.40;101655.00;;;;5074344;28;20185;-70
2023/01/20 20:03:38;;;;;;;1.10;1.10;;;2.80;99.90;3.70;101660.00;;;;5074049;28;20522;-69
2023/01/20 20:06:06;;;;;;;13.53;9.47;;;2.80;99.90;2.70;101672.00;;;;5074112;28;20208;-70